sensor_id;sensor_type;location;lat;lon;timestamp;P1;durP1;ratioP1;P2;durP2;ratioP2
55545;SDS011;44768;50.298;127.520;2023-02-01T00:00:34;9.20;;;4.53;;
55545;SDS011;44768;50.298;127.520;2023-02-01T00:05:36;6.95;;;4.30;;
55545;SDS011;44768;50.298;127.520;2023-02-01T00:10:41;8.85;;;4.80;;
55545;SDS011;44768;50.298;127.520;2023-02-01T00:15:45;8.13;;;4.60;;
55545;SDS011;44768;50.298;127.520;2023-02-01T00:20:46;10.48;;;4.60;;
55545;SDS011;44768;50.298;127.520;2023-02-01T00:25:48;10.98;;;4.53;;
55545;SDS011;44768;50.298;127.520;2023-02-01T00:30:55;11.15;;;4.38;;
55545;SDS011;44768;50.298;127.520;2023-02-01T00:35:59;24.50;;;5.30;;
55545;SDS011;44768;50.298;127.520;2023-02-01T00:41:02;36.22;;;11.60;;
55545;SDS011;44768;50.298;127.520;2023-02-01T00:46:03;35.47;;;10.57;;
55545;SDS011;44768;50.298;127.520;2023-02-01T00:51:06;27.83;;;7.93;;
55545;SDS011;44768;50.298;127.520;2023-02-01T00:56:08;37.83;;;11.80;;
55545;SDS011;44768;50.298;127.520;2023-02-01T01:06:13;26.58;;;8.30;;
55545;SDS011;44768;50.298;127.520;2023-02-01T01:11:17;23.65;;;7.55;;
55545;SDS011;44768;50.298;127.520;2023-02-01T01:16:18;24.42;;;7.25;;
55545;SDS011;44768;50.298;127.520;2023-02-01T01:21:20;38.47;;;8.38;;
55545;SDS011;44768;50.298;127.520;2023-02-01T01:26:23;20.00;;;6.97;;
55545;SDS011;44768;50.298;127.520;2023-02-01T01:31:24;18.52;;;6.40;;
55545;SDS011;44768;50.298;127.520;2023-02-01T01:36:26;18.10;;;5.75;;
55545;SDS011;44768;50.298;127.520;2023-02-01T01:41:31;21.33;;;9.32;;
55545;SDS011;44768;50.298;127.520;2023-02-01T01:46:34;20.70;;;9.75;;
55545;SDS011;44768;50.298;127.520;2023-02-01T01:51:37;15.55;;;8.25;;
55545;SDS011;44768;50.298;127.520;2023-02-01T01:56:39;15.00;;;7.13;;
55545;SDS011;44768;50.298;127.520;2023-02-01T02:01:43;16.13;;;7.15;;
55545;SDS011;44768;50.298;127.520;2023-02-01T02:06:50;16.95;;;6.25;;
55545;SDS011;44768;50.298;127.520;2023-02-01T02:11:54;15.65;;;5.53;;
55545;SDS011;44768;50.298;127.520;2023-02-01T02:38:01;16.55;;;4.95;;
55545;SDS011;44768;50.298;127.520;2023-02-01T02:53:43;10.65;;;5.35;;
55545;SDS011;44768;50.298;127.520;2023-02-01T02:59:05;9.65;;;5.00;;
55545;SDS011;44768;50.298;127.520;2023-02-01T03:04:27;12.93;;;4.60;;
55545;SDS011;44768;50.298;127.520;2023-02-01T03:09:31;13.98;;;4.25;;
55545;SDS011;44768;50.298;127.520;2023-02-01T03:14:35;13.23;;;3.80;;
55545;SDS011;44768;50.298;127.520;2023-02-01T03:19:39;10.35;;;4.22;;
55545;SDS011;44768;50.298;127.520;2023-02-01T03:24:54;7.82;;;3.80;;
55545;SDS011;44768;50.298;127.520;2023-02-01T03:34:57;9.20;;;4.10;;
55545;SDS011;44768;50.298;127.520;2023-02-01T03:40:03;9.55;;;3.70;;
55545;SDS011;44768;50.298;127.520;2023-02-01T03:45:19;6.30;;;3.30;;
55545;SDS011;44768;50.298;127.520;2023-02-01T03:50:22;11.55;;;3.80;;
55545;SDS011;44768;50.298;127.520;2023-02-01T03:55:26;5.80;;;3.08;;
55545;SDS011;44768;50.298;127.520;2023-02-01T04:00:28;6.10;;;3.08;;
55545;SDS011;44768;50.298;127.520;2023-02-01T04:05:30;7.75;;;3.15;;
55545;SDS011;44768;50.298;127.520;2023-02-01T04:10:31;5.55;;;3.05;;
55545;SDS011;44768;50.298;127.520;2023-02-01T04:15:32;8.00;;;3.13;;
55545;SDS011;44768;50.298;127.520;2023-02-01T04:20:35;4.70;;;2.80;;
55545;SDS011;44768;50.298;127.520;2023-02-01T04:25:37;7.35;;;3.08;;
55545;SDS011;44768;50.298;127.520;2023-02-01T04:30:38;10.02;;;3.10;;
55545;SDS011;44768;50.298;127.520;2023-02-01T04:35:39;6.47;;;2.83;;
55545;SDS011;44768;50.298;127.520;2023-02-01T04:40:40;7.55;;;3.28;;
55545;SDS011;44768;50.298;127.520;2023-02-01T04:45:41;4.20;;;2.63;;
55545;SDS011;44768;50.298;127.520;2023-02-01T04:50:48;4.13;;;2.70;;
55545;SDS011;44768;50.298;127.520;2023-02-01T04:55:49;8.82;;;3.30;;
55545;SDS011;44768;50.298;127.520;2023-02-01T05:00:50;6.32;;;2.65;;
55545;SDS011;44768;50.298;127.520;2023-02-01T05:05:52;5.82;;;2.90;;
55545;SDS011;44768;50.298;127.520;2023-02-01T05:10:54;8.27;;;2.90;;
55545;SDS011;44768;50.298;127.520;2023-02-01T05:15:58;3.47;;;2.20;;
55545;SDS011;44768;50.298;127.520;2023-02-01T05:21:00;3.33;;;2.45;;
55545;SDS011;44768;50.298;127.520;2023-02-01T05:26:04;2.80;;;2.10;;
55545;SDS011;44768;50.298;127.520;2023-02-01T05:31:10;9.80;;;3.92;;
55545;SDS011;44768;50.298;127.520;2023-02-01T05:36:29;23.17;;;7.22;;
55545;SDS011;44768;50.298;127.520;2023-02-01T05:41:49;22.42;;;7.25;;
55545;SDS011;44768;50.298;127.520;2023-02-01T05:47:26;25.60;;;6.63;;
55545;SDS011;44768;50.298;127.520;2023-02-01T05:52:27;15.65;;;6.00;;
55545;SDS011;44768;50.298;127.520;2023-02-01T05:57:29;15.40;;;5.97;;
55545;SDS011;44768;50.298;127.520;2023-02-01T06:02:30;11.75;;;5.30;;
55545;SDS011;44768;50.298;127.520;2023-02-01T06:07:32;17.58;;;5.45;;
55545;SDS011;44768;50.298;127.520;2023-02-01T06:12:33;12.55;;;5.20;;
55545;SDS011;44768;50.298;127.520;2023-02-01T06:17:35;10.70;;;4.90;;
55545;SDS011;44768;50.298;127.520;2023-02-01T06:22:37;8.98;;;4.38;;
55545;SDS011;44768;50.298;127.520;2023-02-01T06:27:41;10.00;;;4.40;;
55545;SDS011;44768;50.298;127.520;2023-02-01T06:32:42;9.25;;;4.55;;
55545;SDS011;44768;50.298;127.520;2023-02-01T06:37:44;8.40;;;4.53;;
55545;SDS011;44768;50.298;127.520;2023-02-01T06:42:47;9.68;;;4.03;;
55545;SDS011;44768;50.298;127.520;2023-02-01T06:47:48;10.85;;;3.78;;
55545;SDS011;44768;50.298;127.520;2023-02-01T06:52:50;8.60;;;4.35;;
55545;SDS011;44768;50.298;127.520;2023-02-01T06:57:54;7.53;;;3.85;;
55545;SDS011;44768;50.298;127.520;2023-02-01T07:02:57;9.88;;;4.30;;
55545;SDS011;44768;50.298;127.520;2023-02-01T07:08:01;7.55;;;3.70;;
55545;SDS011;44768;50.298;127.520;2023-02-01T07:13:02;5.63;;;3.33;;
55545;SDS011;44768;50.298;127.520;2023-02-01T07:18:03;6.45;;;3.63;;
55545;SDS011;44768;50.298;127.520;2023-02-01T07:23:05;5.57;;;3.25;;
55545;SDS011;44768;50.298;127.520;2023-02-01T07:28:06;9.85;;;3.20;;
55545;SDS011;44768;50.298;127.520;2023-02-01T07:33:16;5.43;;;2.95;;
55545;SDS011;44768;50.298;127.520;2023-02-01T07:38:17;5.25;;;3.13;;
55545;SDS011;44768;50.298;127.520;2023-02-01T07:43:20;5.93;;;3.17;;
55545;SDS011;44768;50.298;127.520;2023-02-01T07:48:21;6.43;;;3.03;;
55545;SDS011;44768;50.298;127.520;2023-02-01T07:53:23;6.10;;;3.15;;
55545;SDS011;44768;50.298;127.520;2023-02-01T07:58:24;4.53;;;2.78;;
55545;SDS011;44768;50.298;127.520;2023-02-01T08:03:26;5.50;;;2.88;;
55545;SDS011;44768;50.298;127.520;2023-02-01T08:08:27;3.78;;;2.60;;
55545;SDS011;44768;50.298;127.520;2023-02-01T08:13:29;3.97;;;2.65;;
55545;SDS011;44768;50.298;127.520;2023-02-01T08:18:30;4.78;;;2.88;;
55545;SDS011;44768;50.298;127.520;2023-02-01T08:23:32;4.10;;;2.60;;
55545;SDS011;44768;50.298;127.520;2023-02-01T08:28:34;4.00;;;2.55;;
55545;SDS011;44768;50.298;127.520;2023-02-01T08:33:35;7.93;;;2.72;;
55545;SDS011;44768;50.298;127.520;2023-02-01T08:38:38;6.05;;;2.53;;
55545;SDS011;44768;50.298;127.520;2023-02-01T08:43:41;5.82;;;2.60;;
55545;SDS011;44768;50.298;127.520;2023-02-01T08:48:42;10.60;;;4.32;;
55545;SDS011;44768;50.298;127.520;2023-02-01T08:53:43;33.38;;;9.75;;
55545;SDS011;44768;50.298;127.520;2023-02-01T08:58:45;23.10;;;6.25;;
55545;SDS011;44768;50.298;127.520;2023-02-01T09:03:46;18.83;;;5.28;;
55545;SDS011;44768;50.298;127.520;2023-02-01T09:08:48;13.90;;;4.18;;
55545;SDS011;44768;50.298;127.520;2023-02-01T09:13:49;14.88;;;3.33;;
55545;SDS011;44768;50.298;127.520;2023-02-01T09:18:50;11.98;;;3.72;;
55545;SDS011;44768;50.298;127.520;2023-02-01T09:23:51;16.42;;;3.95;;
55545;SDS011;44768;50.298;127.520;2023-02-01T09:28:54;7.65;;;3.30;;
55545;SDS011;44768;50.298;127.520;2023-02-01T09:33:57;7.57;;;3.30;;
55545;SDS011;44768;50.298;127.520;2023-02-01T09:38:58;6.40;;;3.38;;
55545;SDS011;44768;50.298;127.520;2023-02-01T09:49:18;11.00;;;3.80;;
55545;SDS011;44768;50.298;127.520;2023-02-01T09:54:23;7.93;;;3.88;;
55545;SDS011;44768;50.298;127.520;2023-02-01T09:59:34;8.80;;;3.65;;
55545;SDS011;44768;50.298;127.520;2023-02-01T10:04:39;10.77;;;3.55;;
55545;SDS011;44768;50.298;127.520;2023-02-01T10:09:50;5.10;;;3.08;;
55545;SDS011;44768;50.298;127.520;2023-02-01T10:15:02;5.63;;;3.20;;
55545;SDS011;44768;50.298;127.520;2023-02-01T10:20:20;6.45;;;3.22;;
55545;SDS011;44768;50.298;127.520;2023-02-01T10:30:27;7.35;;;2.80;;
55545;SDS011;44768;50.298;127.520;2023-02-01T10:35:31;5.70;;;2.50;;
55545;SDS011;44768;50.298;127.520;2023-02-01T10:40:34;6.22;;;2.60;;
55545;SDS011;44768;50.298;127.520;2023-02-01T10:45:36;7.03;;;2.50;;
55545;SDS011;44768;50.298;127.520;2023-02-01T10:50:42;6.22;;;2.53;;
55545;SDS011;44768;50.298;127.520;2023-02-01T11:00:48;7.93;;;2.58;;
55545;SDS011;44768;50.298;127.520;2023-02-01T11:05:49;8.63;;;2.53;;
55545;SDS011;44768;50.298;127.520;2023-02-01T11:10:58;4.38;;;2.40;;
55545;SDS011;44768;50.298;127.520;2023-02-01T11:16:00;7.63;;;2.40;;
55545;SDS011;44768;50.298;127.520;2023-02-01T11:21:04;4.75;;;1.88;;
55545;SDS011;44768;50.298;127.520;2023-02-01T11:31:36;7.43;;;2.25;;
55545;SDS011;44768;50.298;127.520;2023-02-01T11:36:38;9.05;;;2.50;;
55545;SDS011;44768;50.298;127.520;2023-02-01T11:41:41;19.52;;;2.45;;
55545;SDS011;44768;50.298;127.520;2023-02-01T11:46:44;6.72;;;2.17;;
55545;SDS011;44768;50.298;127.520;2023-02-01T12:07:50;13.73;;;3.70;;
55545;SDS011;44768;50.298;127.520;2023-02-01T12:23:33;96.57;;;6.55;;
55545;SDS011;44768;50.298;127.520;2023-02-01T12:34:12;73.82;;;5.90;;
55545;SDS011;44768;50.298;127.520;2023-02-01T12:39:22;119.18;;;6.95;;
55545;SDS011;44768;50.298;127.520;2023-02-01T12:54:49;38.67;;;4.28;;
55545;SDS011;44768;50.298;127.520;2023-02-01T13:00:07;40.15;;;4.50;;
55545;SDS011;44768;50.298;127.520;2023-02-01T13:05:19;26.38;;;3.85;;
55545;SDS011;44768;50.298;127.520;2023-02-01T13:15:30;14.10;;;3.15;;
55545;SDS011;44768;50.298;127.520;2023-02-01T13:25:39;17.73;;;3.72;;
55545;SDS011;44768;50.298;127.520;2023-02-01T13:46:05;13.57;;;2.87;;
55545;SDS011;44768;50.298;127.520;2023-02-01T13:51:06;8.63;;;2.70;;
55545;SDS011;44768;50.298;127.520;2023-02-01T14:12:41;26.73;;;4.60;;
55545;SDS011;44768;50.298;127.520;2023-02-01T14:21:59;14.90;;;3.63;;
55545;SDS011;44768;50.298;127.520;2023-02-01T14:32:16;12.00;;;3.50;;
55545;SDS011;44768;50.298;127.520;2023-02-01T14:42:25;22.50;;;3.70;;
55545;SDS011;44768;50.298;127.520;2023-02-01T14:47:28;10.57;;;3.20;;
55545;SDS011;44768;50.298;127.520;2023-02-01T14:52:31;9.18;;;3.58;;
55545;SDS011;44768;50.298;127.520;2023-02-01T14:57:34;8.77;;;3.15;;
55545;SDS011;44768;50.298;127.520;2023-02-01T15:02:36;8.30;;;2.97;;
55545;SDS011;44768;50.298;127.520;2023-02-01T15:07:40;10.18;;;3.17;;
55545;SDS011;44768;50.298;127.520;2023-02-01T15:12:41;10.75;;;3.17;;
55545;SDS011;44768;50.298;127.520;2023-02-01T15:17:53;11.93;;;3.55;;
55545;SDS011;44768;50.298;127.520;2023-02-01T15:23:06;8.43;;;3.10;;
55545;SDS011;44768;50.298;127.520;2023-02-01T15:28:13;8.25;;;2.88;;
55545;SDS011;44768;50.298;127.520;2023-02-01T15:33:16;6.88;;;3.00;;
55545;SDS011;44768;50.298;127.520;2023-02-01T15:38:19;7.90;;;2.70;;
55545;SDS011;44768;50.298;127.520;2023-02-01T15:43:20;9.73;;;2.75;;
55545;SDS011;44768;50.298;127.520;2023-02-01T15:48:23;7.80;;;2.58;;
55545;SDS011;44768;50.298;127.520;2023-02-01T15:53:26;5.15;;;2.50;;
55545;SDS011;44768;50.298;127.520;2023-02-01T15:58:31;8.35;;;2.40;;
55545;SDS011;44768;50.298;127.520;2023-02-01T16:03:35;5.13;;;2.20;;
55545;SDS011;44768;50.298;127.520;2023-02-01T16:08:48;4.72;;;2.25;;
55545;SDS011;44768;50.298;127.520;2023-02-01T16:13:49;3.83;;;2.15;;
55545;SDS011;44768;50.298;127.520;2023-02-01T16:18:51;4.32;;;2.20;;
55545;SDS011;44768;50.298;127.520;2023-02-01T16:23:52;5.38;;;2.10;;
55545;SDS011;44768;50.298;127.520;2023-02-01T16:28:54;5.32;;;2.22;;
55545;SDS011;44768;50.298;127.520;2023-02-01T16:33:55;6.28;;;2.20;;
55545;SDS011;44768;50.298;127.520;2023-02-01T16:38:56;4.05;;;2.30;;
55545;SDS011;44768;50.298;127.520;2023-02-01T16:43:58;4.20;;;2.10;;
55545;SDS011;44768;50.298;127.520;2023-02-01T16:48:59;6.13;;;2.00;;
55545;SDS011;44768;50.298;127.520;2023-02-01T16:54:00;3.20;;;1.98;;
55545;SDS011;44768;50.298;127.520;2023-02-01T16:59:02;5.05;;;2.13;;
55545;SDS011;44768;50.298;127.520;2023-02-01T17:04:03;2.50;;;1.73;;
55545;SDS011;44768;50.298;127.520;2023-02-01T17:09:05;3.05;;;1.80;;
55545;SDS011;44768;50.298;127.520;2023-02-01T17:14:17;4.40;;;2.05;;
55545;SDS011;44768;50.298;127.520;2023-02-01T17:19:20;1.70;;;1.35;;
55545;SDS011;44768;50.298;127.520;2023-02-01T17:24:23;1.92;;;1.50;;
55545;SDS011;44768;50.298;127.520;2023-02-01T17:29:25;7.68;;;1.70;;
55545;SDS011;44768;50.298;127.520;2023-02-01T17:34:27;2.60;;;1.77;;
55545;SDS011;44768;50.298;127.520;2023-02-01T17:39:28;2.10;;;1.60;;
55545;SDS011;44768;50.298;127.520;2023-02-01T17:44:48;2.95;;;2.00;;
55545;SDS011;44768;50.298;127.520;2023-02-01T17:49:49;2.35;;;1.48;;
55545;SDS011;44768;50.298;127.520;2023-02-01T17:54:55;4.10;;;1.90;;
55545;SDS011;44768;50.298;127.520;2023-02-01T17:59:57;2.97;;;1.60;;
55545;SDS011;44768;50.298;127.520;2023-02-01T18:04:58;3.88;;;1.67;;
55545;SDS011;44768;50.298;127.520;2023-02-01T18:10:00;2.15;;;1.50;;
55545;SDS011;44768;50.298;127.520;2023-02-01T18:15:08;2.28;;;1.50;;
55545;SDS011;44768;50.298;127.520;2023-02-01T18:20:14;2.95;;;1.98;;
55545;SDS011;44768;50.298;127.520;2023-02-01T18:30:23;2.20;;;1.60;;
55545;SDS011;44768;50.298;127.520;2023-02-01T18:35:25;2.00;;;1.42;;
55545;SDS011;44768;50.298;127.520;2023-02-01T18:40:29;2.05;;;1.48;;
55545;SDS011;44768;50.298;127.520;2023-02-01T18:45:34;1.90;;;1.70;;
55545;SDS011;44768;50.298;127.520;2023-02-01T18:50:37;3.03;;;1.45;;
55545;SDS011;44768;50.298;127.520;2023-02-01T18:55:38;3.10;;;1.30;;
55545;SDS011;44768;50.298;127.520;2023-02-01T19:00:40;1.75;;;1.50;;
55545;SDS011;44768;50.298;127.520;2023-02-01T19:05:41;2.95;;;1.55;;
55545;SDS011;44768;50.298;127.520;2023-02-01T19:10:43;2.45;;;1.67;;
55545;SDS011;44768;50.298;127.520;2023-02-01T19:15:44;2.47;;;1.60;;
55545;SDS011;44768;50.298;127.520;2023-02-01T19:20:46;1.50;;;1.30;;
55545;SDS011;44768;50.298;127.520;2023-02-01T19:25:50;3.15;;;1.30;;
55545;SDS011;44768;50.298;127.520;2023-02-01T19:31:10;1.90;;;1.50;;
55545;SDS011;44768;50.298;127.520;2023-02-01T19:36:11;2.45;;;1.70;;
55545;SDS011;44768;50.298;127.520;2023-02-01T19:41:12;1.95;;;1.25;;
55545;SDS011;44768;50.298;127.520;2023-02-01T19:46:13;2.58;;;1.40;;
55545;SDS011;44768;50.298;127.520;2023-02-01T19:51:14;1.70;;;1.38;;
55545;SDS011;44768;50.298;127.520;2023-02-01T19:56:16;3.63;;;1.50;;
55545;SDS011;44768;50.298;127.520;2023-02-01T20:01:17;1.90;;;1.70;;
55545;SDS011;44768;50.298;127.520;2023-02-01T20:06:19;1.75;;;1.60;;
55545;SDS011;44768;50.298;127.520;2023-02-01T20:11:21;1.55;;;1.27;;
55545;SDS011;44768;50.298;127.520;2023-02-01T20:16:24;1.80;;;1.55;;
55545;SDS011;44768;50.298;127.520;2023-02-01T20:21:25;1.60;;;1.50;;
55545;SDS011;44768;50.298;127.520;2023-02-01T20:26:27;1.73;;;1.42;;
55545;SDS011;44768;50.298;127.520;2023-02-01T20:31:29;1.63;;;1.50;;
55545;SDS011;44768;50.298;127.520;2023-02-01T20:36:30;1.77;;;1.50;;
55545;SDS011;44768;50.298;127.520;2023-02-01T20:41:32;2.08;;;1.33;;
55545;SDS011;44768;50.298;127.520;2023-02-01T20:46:33;1.77;;;1.33;;
55545;SDS011;44768;50.298;127.520;2023-02-01T20:51:34;2.47;;;1.80;;
55545;SDS011;44768;50.298;127.520;2023-02-01T20:56:35;4.72;;;1.70;;
55545;SDS011;44768;50.298;127.520;2023-02-01T21:01:38;2.28;;;1.90;;
55545;SDS011;44768;50.298;127.520;2023-02-01T21:06:55;3.05;;;2.05;;
55545;SDS011;44768;50.298;127.520;2023-02-01T21:11:57;2.90;;;2.10;;
55545;SDS011;44768;50.298;127.520;2023-02-01T21:16:58;2.65;;;2.00;;
55545;SDS011;44768;50.298;127.520;2023-02-01T21:22:00;2.83;;;1.90;;
55545;SDS011;44768;50.298;127.520;2023-02-01T21:27:01;18.55;;;2.10;;
55545;SDS011;44768;50.298;127.520;2023-02-01T21:32:04;2.05;;;1.40;;
55545;SDS011;44768;50.298;127.520;2023-02-01T21:37:06;2.60;;;1.60;;
55545;SDS011;44768;50.298;127.520;2023-02-01T21:42:08;2.08;;;1.60;;
55545;SDS011;44768;50.298;127.520;2023-02-01T21:47:18;1.77;;;1.33;;
55545;SDS011;44768;50.298;127.520;2023-02-01T21:52:20;5.25;;;1.70;;
55545;SDS011;44768;50.298;127.520;2023-02-01T21:57:22;2.20;;;1.48;;
55545;SDS011;44768;50.298;127.520;2023-02-01T22:02:24;3.88;;;1.90;;
55545;SDS011;44768;50.298;127.520;2023-02-01T22:07:25;4.97;;;3.20;;
55545;SDS011;44768;50.298;127.520;2023-02-01T22:12:26;3.15;;;2.40;;
55545;SDS011;44768;50.298;127.520;2023-02-01T22:17:28;3.80;;;1.90;;
55545;SDS011;44768;50.298;127.520;2023-02-01T22:22:31;11.25;;;2.00;;
55545;SDS011;44768;50.298;127.520;2023-02-01T22:27:32;3.75;;;1.75;;
55545;SDS011;44768;50.298;127.520;2023-02-01T22:32:33;14.18;;;3.67;;
55545;SDS011;44768;50.298;127.520;2023-02-01T22:37:35;20.52;;;5.28;;
55545;SDS011;44768;50.298;127.520;2023-02-01T22:42:36;21.20;;;6.28;;
55545;SDS011;44768;50.298;127.520;2023-02-01T22:47:37;24.50;;;6.95;;
55545;SDS011;44768;50.298;127.520;2023-02-01T22:52:38;17.95;;;5.63;;
55545;SDS011;44768;50.298;127.520;2023-02-01T22:57:39;19.27;;;5.63;;
55545;SDS011;44768;50.298;127.520;2023-02-01T23:02:41;16.48;;;5.22;;
55545;SDS011;44768;50.298;127.520;2023-02-01T23:07:44;15.50;;;5.10;;
55545;SDS011;44768;50.298;127.520;2023-02-01T23:12:46;13.98;;;4.88;;
55545;SDS011;44768;50.298;127.520;2023-02-01T23:17:47;13.25;;;4.85;;
55545;SDS011;44768;50.298;127.520;2023-02-01T23:22:48;15.00;;;4.30;;
55545;SDS011;44768;50.298;127.520;2023-02-01T23:27:50;13.20;;;4.10;;
55545;SDS011;44768;50.298;127.520;2023-02-01T23:32:51;20.02;;;4.72;;
55545;SDS011;44768;50.298;127.520;2023-02-01T23:37:52;14.23;;;4.00;;
55545;SDS011;44768;50.298;127.520;2023-02-01T23:42:54;11.50;;;4.50;;
55545;SDS011;44768;50.298;127.520;2023-02-01T23:48:13;15.25;;;4.15;;
55545;SDS011;44768;50.298;127.520;2023-02-01T23:53:14;16.88;;;4.10;;
55545;SDS011;44768;50.298;127.520;2023-02-01T23:58:15;11.05;;;4.05;;
